Time;durP1;ratioP1;P1;durP2;ratioP2;P2;SDS_P1;SDS_P2;PMS_P1;PMS_P2;Temp;Humidity;BMP_temperature;BMP_pressure;BME280_temperature;BME280_humidity;BME280_pressure;Samples;Min_cycle;Max_cycle;Signal;HPM_P1;HPM_P2
2023/01/19 00:00:57;;;;;;;29.88;23.15;;;;;;;-2.61;100.00;94764.69;5088550;28;20032;-77
2023/01/19 00:03:22;;;;;;;27.70;24.63;;;;;;;-2.60;100.00;94765.53;5086694;28;20028;-78
2023/01/19 00:05:48;;;;;;;26.27;23.50;;;;;;;-2.61;100.00;94772.44;5080528;28;20024;-78
2023/01/19 00:08:13;;;;;;;22.77;20.40;;;;;;;-2.59;100.00;94770.59;5091232;28;20063;-79
2023/01/19 00:10:40;;;;;;;22.40;20.10;;;;;;;-2.57;100.00;94770.53;5075647;28;20480;-78
2023/01/19 00:13:05;;;;;;;18.90;16.90;;;;;;;-2.53;100.00;94766.84;5068041;28;20032;-78
2023/01/19 00:15:31;;;;;;;23.65;18.15;;;;;;;-2.52;100.00;94768.50;5089451;28;20073;-62
2023/01/19 00:17:56;;;;;;;18.10;16.00;;;;;;;-2.53;100.00;94764.28;5089927;28;20454;-65
2023/01/19 00:20:21;;;;;;;16.45;14.35;;;;;;;-2.53;100.00;94764.28;5084200;28;20036;-69
2023/01/19 00:22:49;;;;;;;22.13;18.10;;;;;;;-2.51;100.00;94767.59;5088641;28;20028;-68
2023/01/19 00:25:17;;;;;;;24.70;22.13;;;;;;;-2.51;100.00;94770.19;5086643;28;20024;-69
2023/01/19 00:27:48;;;;;;;22.42;19.73;;;;;;;-2.53;100.00;94763.47;5089796;28;20107;-69
2023/01/19 00:30:14;;;;;;;20.55;18.45;;;;;;;-2.59;100.00;94768.00;5082579;28;20049;-69
2023/01/19 00:32:39;;;;;;;21.98;19.67;;;;;;;-2.59;100.00;94767.19;5071495;28;20490;-69
2023/01/19 00:35:05;;;;;;;24.35;21.85;;;;;;;-2.59;100.00;94768.00;5088862;28;20108;-61
2023/01/19 00:37:30;;;;;;;23.45;20.40;;;;;;;-2.61;100.00;94764.69;5090498;28;20064;-61
2023/01/19 00:39:55;;;;;;;19.33;17.25;;;;;;;-2.59;100.00;94768.00;5084686;28;20028;-69
2023/01/19 00:42:39;;;;;;;21.35;19.15;;;;;;;-2.63;100.00;94769.09;5084358;28;20027;-69
2023/01/19 00:45:08;;;;;;;23.23;20.80;;;;;;;-2.62;100.00;94767.38;5087429;28;20042;-69
2023/01/19 00:47:34;;;;;;;23.88;21.45;;;;;;;-2.63;100.00;94768.28;5086843;28;20100;-69
2023/01/19 00:49:59;;;;;;;21.00;18.60;;;;;;;-2.62;100.00;94773.34;5084145;28;20040;-69
2023/01/19 00:52:25;;;;;;;16.95;15.20;;;;;;;-2.65;100.00;94763.22;5088793;28;20030;-68
2023/01/19 00:58:12;;;;;;;18.48;16.65;;;;;;;-2.65;100.00;94763.22;5084412;28;20035;-62
2023/01/19 01:00:37;;;;;;;19.42;17.52;;;;;;;-2.68;100.00;94775.41;5087383;28;20016;-61
2023/01/19 01:03:03;;;;;;;21.15;18.95;;;;;;;-2.69;100.00;94773.75;5091143;28;20027;-61
2023/01/19 01:05:28;;;;;;;20.85;18.85;;;;;;;-2.69;100.00;94772.03;5084449;28;20031;-61
2023/01/19 01:07:54;;;;;;;18.90;16.92;;;;;;;-2.68;100.00;94778.84;5091470;28;20085;-61
2023/01/19 01:10:24;;;;;;;17.45;15.68;;;;;;;-2.67;100.00;94783.09;5086388;28;20035;-61
2023/01/19 01:12:50;;;;;;;16.88;14.95;;;;;;;-2.63;100.00;94782.00;5082704;28;20032;-61
2023/01/19 01:15:16;;;;;;;16.50;14.88;;;;;;;-2.61;100.00;94775.00;5082473;28;20029;-75
2023/01/19 01:17:46;;;;;;;16.50;14.80;;;;;;;-2.61;100.00;94780.16;5081165;28;20408;-61
2023/01/19 01:20:17;;;;;;;12.52;11.32;;;;;;;-2.57;100.00;94774.84;5076046;28;20441;-61
2023/01/19 01:22:44;;;;;;;12.95;11.68;;;;;;;-2.53;100.00;94773.78;5077332;28;20020;-61
2023/01/19 01:25:15;;;;;;;18.65;16.80;;;;;;;-2.55;100.00;94778.16;5075977;28;20028;-61
2023/01/19 01:27:41;;;;;;;19.83;17.65;;;;;;;-2.57;100.00;94780.84;5090764;28;20046;-61
2023/01/19 01:30:08;;;;;;;22.95;17.55;;;;;;;-2.59;100.00;94772.34;5085994;28;20076;-61
2023/01/19 01:32:33;;;;;;;13.35;12.05;;;;;;;-2.69;100.00;94771.19;5087856;28;20031;-61
2023/01/19 01:34:59;;;;;;;12.82;11.43;;;;;;;-2.66;100.00;94777.00;5087791;28;20512;-61
2023/01/19 01:37:24;;;;;;;12.30;11.18;;;;;;;-2.62;100.00;94773.34;5072081;28;20040;-61
2023/01/19 01:39:50;;;;;;;12.05;10.80;;;;;;;-2.62;100.00;94783.66;5084087;28;20056;-61
2023/01/19 01:42:18;;;;;;;12.30;10.93;;;;;;;-2.63;100.00;94788.91;5082197;28;20490;-61
2023/01/19 01:44:52;;;;;;;11.75;10.48;;;;;;;-2.67;100.00;94784.81;5087346;28;20032;-61
2023/01/19 01:47:25;;;;;;;11.63;10.73;;;;;;;-2.69;100.00;94790.06;5077985;28;20030;-61
2023/01/19 01:49:57;;;;;;;11.52;10.43;;;;;;;-2.68;100.00;94789.16;5081229;28;20040;-61
2023/01/19 01:52:26;;;;;;;10.80;9.90;;;;;;;-2.70;100.00;94790.13;5083857;28;20024;-62
2023/01/19 01:54:52;;;;;;;13.63;11.27;;;;;;;-2.64;100.00;94784.66;5098476;28;20019;-62
2023/01/19 01:57:18;;;;;;;28.95;17.90;;;;;;;-2.66;100.00;94789.91;5081578;28;20036;-62
2023/01/19 01:59:47;;;;;;;12.43;11.13;;;;;;;-2.68;100.00;94799.47;5078060;28;20027;-62
2023/01/19 02:05:14;;;;;;;31.55;21.40;;;;;;;-2.72;100.00;94795.38;5076271;28;20057;-62
2023/01/19 02:13:54;;;;;;;47.92;29.10;;;;;;;-2.57;100.00;94808.34;5086777;28;20572;-60
2023/01/19 02:16:19;;;;;;;26.10;14.70;;;;;;;-2.46;100.00;94812.00;5085336;28;20031;-64
2023/01/19 02:18:44;;;;;;;61.42;33.13;;;;;;;-2.39;100.00;94807.34;5084559;28;20133;-64
2023/01/19 02:21:13;;;;;;;10.88;9.90;;;;;;;-2.27;100.00;94805.00;5083737;28;20023;-65
2023/01/19 02:23:51;;;;;;;10.68;9.63;;;;;;;-2.34;100.00;94809.66;5084759;28;20032;-65
2023/01/19 02:26:26;;;;;;;9.70;8.90;;;;;;;-2.46;100.00;94813.75;5082009;28;20016;-64
2023/01/19 02:29:02;;;;;;;56.60;35.17;;;;;;;-2.41;100.00;94810.94;5084690;28;20032;-64
2023/01/19 02:31:29;;;;;;;17.77;13.88;;;;;;;-2.45;100.00;94807.69;5086980;28;20066;-64
2023/01/19 02:33:56;;;;;;;8.57;7.80;;;;;;;-2.28;100.00;94806.72;5062279;28;20077;-61
2023/01/19 02:36:46;;;;;;;9.07;8.27;;;;;;;-2.41;100.00;94806.59;5081685;28;20414;-65
2023/01/19 02:39:14;;;;;;;16.70;12.30;;;;;;;-2.39;100.00;94812.50;5082032;28;20043;-65
2023/01/19 02:41:45;;;;;;;11.73;10.13;;;;;;;-2.37;100.00;94808.06;5076572;28;20111;-65
2023/01/19 02:44:13;;;;;;;21.27;14.88;;;;;;;-2.46;100.00;94808.59;5081897;28;20027;-65
2023/01/19 02:46:39;;;;;;;7.72;7.03;;;;;;;-2.36;100.00;94809.72;5084794;28;20024;-65
2023/01/19 02:49:05;;;;;;;11.35;10.15;;;;;;;-2.45;100.00;94807.69;5077454;28;20077;-65
2023/01/19 02:51:31;;;;;;;24.30;17.00;;;;;;;-2.50;100.00;94805.34;5077893;28;20024;-63
2023/01/19 02:54:06;;;;;;;18.38;12.75;;;;;;;-2.55;100.00;94806.50;5082165;28;20020;-61
2023/01/19 02:56:43;;;;;;;33.15;21.13;;;;;;;-2.57;100.00;94810.91;5081430;28;20045;-61
2023/01/19 02:59:36;;;;;;;30.58;19.98;;;;;;;-2.65;100.00;94809.59;5081726;28;20502;-61
2023/01/19 03:02:11;;;;;;;12.02;10.90;;;;;;;-2.68;100.00;94809.78;5078781;28;20035;-61
2023/01/19 03:04:47;;;;;;;18.90;15.63;;;;;;;-2.64;100.00;94818.19;5075447;28;20019;-60
2023/01/19 03:07:19;;;;;;;16.65;12.95;;;;;;;-2.63;100.00;94820.66;5080903;28;20032;-61
2023/01/19 03:10:10;;;;;;;24.10;16.20;;;;;;;-2.67;100.00;94819.16;5081108;28;20512;-68
2023/01/19 03:12:56;;;;;;;15.02;11.98;;;;;;;-2.58;100.00;94815.25;5075211;28;20039;-65
2023/01/19 03:15:53;;;;;;;13.70;11.38;;;;;;;-2.62;100.00;94824.06;5081996;28;20024;-66
2023/01/19 03:18:23;;;;;;;10.07;9.18;;;;;;;-2.64;100.00;94816.41;5087123;28;20036;-66
2023/01/19 03:20:52;;;;;;;44.45;27.52;;;;;;;-2.66;100.00;94823.41;5087335;28;20028;-66
2023/01/19 03:23:20;;;;;;;41.35;27.50;;;;;;;-2.64;100.00;94825.91;5079122;28;20048;-65
2023/01/19 03:25:49;;;;;;;35.47;22.48;;;;;;;-2.49;100.00;94831.97;5081017;28;20390;-66
2023/01/19 03:28:18;;;;;;;11.07;9.90;;;;;;;-2.62;100.00;94836.97;5071829;28;20501;-67
2023/01/19 03:30:50;;;;;;;11.10;10.00;;;;;;;-2.69;100.00;94830.44;5081871;28;20016;-64
2023/01/19 03:33:26;;;;;;;17.20;11.68;;;;;;;-2.73;100.00;94829.81;5081103;28;20154;-74
2023/01/19 03:35:56;;;;;;;14.88;11.30;;;;;;;-2.70;100.00;94821.91;5080929;28;20058;-76
2023/01/19 03:38:26;;;;;;;12.30;10.25;;;;;;;-2.73;100.00;94834.97;5084536;28;20098;-76
2023/01/19 03:40:57;;;;;;;9.90;9.00;;;;;;;-2.80;100.00;94836.19;5079004;28;20103;-76
2023/01/19 03:43:24;;;;;;;11.20;9.77;;;;;;;-2.86;100.00;94829.63;5081559;28;20040;-75
2023/01/19 03:45:51;;;;;;;9.82;8.98;;;;;;;-2.89;100.00;94829.78;5077055;28;20111;-75
2023/01/19 03:48:16;;;;;;;10.45;9.45;;;;;;;-2.90;100.00;94834.09;5076877;28;20576;-60
2023/01/19 03:50:42;;;;;;;10.63;9.70;;;;;;;-2.95;100.00;94842.97;5082092;28;20020;-60
2023/01/19 03:53:12;;;;;;;11.38;10.27;;;;;;;-2.84;100.00;94842.41;5078054;28;20035;-61
2023/01/19 03:55:41;;;;;;;10.00;9.10;;;;;;;-2.94;100.00;94849.78;5087380;28;20020;-61
2023/01/19 03:58:06;;;;;;;12.70;11.50;;;;;;;-3.00;100.00;94843.22;5089442;28;20027;-61
2023/01/19 04:00:32;;;;;;;10.90;9.90;;;;;;;-3.06;100.00;94841.81;5088811;28;20024;-61
2023/01/19 04:02:58;;;;;;;10.88;9.77;;;;;;;-3.11;100.00;94840.38;5074745;28;20038;-61
2023/01/19 04:05:24;;;;;;;11.25;10.15;;;;;;;-3.15;100.00;94849.19;5092388;28;20392;-61
2023/01/19 04:07:50;;;;;;;10.13;9.23;;;;;;;-3.23;100.00;94842.66;5092999;28;20024;-64
2023/01/19 04:10:17;;;;;;;10.60;9.45;;;;;;;-3.28;100.00;94841.25;5092433;28;20032;-61
2023/01/19 04:12:42;;;;;;;10.25;9.45;;;;;;;-3.33;100.00;94841.47;5092719;28;20020;-62
2023/01/19 04:15:08;;;;;;;10.30;8.85;;;;;;;-3.38;100.00;94846.03;5092677;28;20032;-61
2023/01/19 04:17:33;;;;;;;11.05;10.05;;;;;;;-3.41;100.00;94849.59;5092374;28;20026;-61
2023/01/19 04:23:20;;;;;;;10.30;9.30;;;;;;;-3.48;100.00;94861.94;5081964;28;20097;-61
2023/01/19 04:25:46;;;;;;;12.27;9.65;;;;;;;-3.53;100.00;94861.34;5092001;28;20027;-61
2023/01/19 04:28:11;;;;;;;13.93;12.50;;;;;;;-3.62;100.00;94861.81;5091915;28;20094;-69
2023/01/19 04:30:37;;;;;;;12.48;11.07;;;;;;;-3.67;100.00;94856.88;5092835;28;20536;-61
2023/01/19 04:33:02;;;;;;;10.75;9.75;;;;;;;-3.69;100.00;94863.00;5091965;28;20020;-61
2023/01/19 04:35:27;;;;;;;10.77;9.77;;;;;;;-3.67;100.00;94861.19;5092405;28;20052;-62
2023/01/19 04:37:53;;;;;;;15.55;12.27;;;;;;;-3.62;100.00;94864.38;5091666;28;20105;-61
2023/01/19 04:40:18;;;;;;;12.40;11.10;;;;;;;-3.70;100.00;94862.19;5092290;28;20020;-61
2023/01/19 04:42:44;;;;;;;13.27;11.70;;;;;;;-3.78;100.00;94866.84;5091796;28;20546;-62
2023/01/19 04:45:11;;;;;;;13.45;11.90;;;;;;;-3.80;100.00;94866.09;5092411;28;20513;-61
2023/01/19 04:47:36;;;;;;;15.05;11.52;;;;;;;-3.88;100.00;94866.47;5091927;28;20145;-73
2023/01/19 04:50:04;;;;;;;13.18;11.98;;;;;;;-3.97;100.00;94872.06;5091940;28;20111;-61
2023/01/19 04:52:34;;;;;;;13.07;11.68;;;;;;;-4.08;100.00;94870.00;5091140;28;20107;-61
2023/01/19 04:55:02;;;;;;;13.32;11.93;;;;;;;-4.17;100.00;94879.00;5091339;28;20032;-61
2023/01/19 04:57:29;;;;;;;14.05;12.65;;;;;;;-4.23;100.00;94872.41;5092064;28;20571;-61
2023/01/19 04:59:55;;;;;;;15.85;12.13;;;;;;;-4.24;100.00;94872.50;5091741;28;20035;-61
2023/01/19 05:02:21;;;;;;;13.70;12.15;;;;;;;-4.24;100.00;94865.59;5091855;28;20062;-61
2023/01/19 05:04:46;;;;;;;12.60;11.30;;;;;;;-4.25;100.00;94870.81;5091331;28;20546;-61
2023/01/19 05:07:12;;;;;;;12.98;11.52;;;;;;;-4.32;100.00;94873.66;5091720;28;20032;-74
2023/01/19 05:09:37;;;;;;;18.98;14.60;;;;;;;-4.37;100.00;94865.34;5091658;28;20513;-60
2023/01/19 05:12:03;;;;;;;13.43;11.82;;;;;;;-4.41;100.00;94860.44;5091125;28;20036;-60
2023/01/19 05:14:28;;;;;;;12.57;11.02;;;;;;;-4.46;100.00;94874.31;5090926;28;20105;-60
2023/01/19 05:16:54;;;;;;;11.07;9.98;;;;;;;-4.49;100.00;94868.50;5091251;28;20382;-60
2023/01/19 05:19:20;;;;;;;10.50;9.48;;;;;;;-4.58;100.00;94872.31;5090908;28;20523;-60
2023/01/19 05:21:45;;;;;;;9.48;8.57;;;;;;;-4.60;100.00;94872.38;5091143;28;20020;-60
2023/01/19 05:24:11;;;;;;;10.43;9.48;;;;;;;-4.60;100.00;94884.41;5091213;28;20885;-60
2023/01/19 05:26:36;;;;;;;12.45;10.52;;;;;;;-4.63;100.00;94890.50;5090697;28;20020;-65
2023/01/19 05:29:02;;;;;;;11.80;10.40;;;;;;;-4.66;100.00;94892.38;5090940;28;20035;-65
2023/01/19 05:31:27;;;;;;;12.35;10.88;;;;;;;-4.66;100.00;94889.78;5090798;28;20493;-65
2023/01/19 05:33:52;;;;;;;12.43;11.05;;;;;;;-4.72;100.00;94892.66;5091118;28;20486;-65
2023/01/19 05:36:18;;;;;;;12.68;11.43;;;;;;;-4.79;100.00;94894.66;5090139;28;20492;-65
2023/01/19 05:38:43;;;;;;;10.95;9.85;;;;;;;-4.87;100.00;94894.16;5090773;28;20502;-65
2023/01/19 05:41:08;;;;;;;11.60;10.35;;;;;;;-4.84;100.00;94899.16;5090472;28;20128;-65
2023/01/19 05:43:34;;;;;;;10.18;9.13;;;;;;;-4.88;100.00;94893.31;5091086;28;20047;-74
2023/01/19 05:45:59;;;;;;;10.43;9.43;;;;;;;-4.95;100.00;94892.78;5090447;28;20012;-62
2023/01/19 05:48:24;;;;;;;10.60;9.50;;;;;;;-4.98;100.00;94898.03;5090470;28;20094;-67
2023/01/19 05:50:50;;;;;;;11.10;10.10;;;;;;;-5.01;100.00;94900.72;5090306;28;20024;-67
2023/01/19 05:53:16;;;;;;;12.07;10.80;;;;;;;-4.99;100.00;94906.63;5090638;28;20020;-66
2023/01/19 05:55:41;;;;;;;13.10;11.85;;;;;;;-5.08;100.00;94904.47;5090476;28;20399;-66
2023/01/19 05:58:07;;;;;;;14.93;13.48;;;;;;;-5.10;100.00;94908.84;5090256;28;20409;-67
2023/01/19 06:00:32;;;;;;;15.32;13.73;;;;;;;-5.18;100.00;94911.75;5090519;28;20073;-67
2023/01/19 06:02:59;;;;;;;15.80;13.30;;;;;;;-5.25;100.00;94912.91;5090395;28;20119;-66
2023/01/19 06:05:24;;;;;;;15.35;13.75;;;;;;;-5.26;100.00;94924.06;5090365;28;20486;-62
2023/01/19 06:07:50;;;;;;;14.90;13.35;;;;;;;-5.30;100.00;94918.22;5090292;28;20028;-62
2023/01/19 06:10:15;;;;;;;13.45;12.05;;;;;;;-5.29;100.00;94919.91;5072246;28;20024;-62
2023/01/19 06:12:41;;;;;;;16.75;14.98;;;;;;;-5.34;100.00;94927.78;5091469;28;20045;-62
2023/01/19 06:15:07;;;;;;;13.35;11.77;;;;;;;-5.42;100.00;94923.88;5088756;28;20080;-62
2023/01/19 06:17:34;;;;;;;12.93;11.60;;;;;;;-5.46;100.00;94924.00;5090057;28;20019;-62
2023/01/19 06:20:00;;;;;;;13.70;12.30;;;;;;;-5.46;100.00;94930.88;5043097;28;20048;-61
2023/01/19 06:22:25;;;;;;;13.18;11.77;;;;;;;-5.48;100.00;94930.94;5053833;28;20049;-60
2023/01/19 06:24:50;;;;;;;11.98;10.77;;;;;;;-5.47;100.00;94937.72;5090336;28;20032;-61
2023/01/19 06:27:16;;;;;;;13.30;10.70;;;;;;;-5.49;100.00;94938.69;5089607;28;20398;-74
2023/01/19 06:29:41;;;;;;;14.38;13.05;;;;;;;-5.53;100.00;94953.38;5090133;28;20073;-76
2023/01/19 06:32:06;;;;;;;16.10;14.25;;;;;;;-5.57;100.00;94943.28;5089847;28;20600;-74
2023/01/19 06:34:32;;;;;;;13.65;12.35;;;;;;;-5.57;100.00;94946.72;5089885;28;20500;-73
2023/01/19 06:36:57;;;;;;;14.00;12.57;;;;;;;-5.58;100.00;94951.88;5071178;28;20501;-74
2023/01/19 06:39:23;;;;;;;12.65;11.35;;;;;;;-5.62;100.00;94956.31;5089867;28;20592;-74
2023/01/19 06:41:48;;;;;;;31.13;22.13;;;;;;;-5.46;100.00;94957.34;5090331;28;20062;-65
2023/01/19 06:44:14;;;;;;;38.83;24.13;;;;;;;-5.56;100.00;94957.78;5084792;28;20024;-74
2023/01/19 06:46:39;;;;;;;27.42;21.95;;;;;;;-5.53;100.00;94960.22;5088896;28;20052;-66
2023/01/19 06:49:04;;;;;;;27.95;21.08;;;;;;;-5.54;100.00;94961.13;5089269;28;20035;-66
2023/01/19 06:51:30;;;;;;;25.88;20.40;;;;;;;-5.50;100.00;94967.81;5089885;28;20078;-64
2023/01/19 06:53:55;;;;;;;29.48;23.75;;;;;;;-5.40;100.00;94965.72;5091148;28;20024;-65
2023/01/19 06:56:21;;;;;;;42.60;30.60;;;;;;;-5.51;100.00;94961.03;5091575;28;20761;-65
2023/01/19 06:58:47;;;;;;;26.40;21.60;;;;;;;-5.60;100.00;94964.78;5089806;28;20041;-65
2023/01/19 07:01:12;;;;;;;25.83;20.90;;;;;;;-5.65;100.00;94967.53;5089798;28;20107;-66
2023/01/19 07:03:38;;;;;;;24.70;19.77;;;;;;;-5.71;100.00;94969.50;5092569;28;20104;-73
2023/01/19 07:06:05;;;;;;;24.08;19.80;;;;;;;-5.76;100.00;94967.13;5083314;28;20036;-60
2023/01/19 07:08:31;;;;;;;25.52;19.30;;;;;;;-5.77;100.00;94974.00;5085591;28;20024;-61
2023/01/19 07:11:03;;;;;;;24.58;19.75;;;;;;;-5.79;100.00;94972.38;5087439;28;20034;-61
2023/01/19 07:13:29;;;;;;;24.75;19.30;;;;;;;-5.83;100.00;94979.38;5089579;28;20063;-61
2023/01/19 07:15:54;;;;;;;26.08;20.42;;;;;;;-5.81;100.00;94976.72;5088184;28;20055;-60
2023/01/19 07:18:19;;;;;;;24.60;19.88;;;;;;;-5.85;100.00;94991.41;5092506;28;20032;-60
2023/01/19 07:20:47;;;;;;;25.42;22.77;;;;;;;-5.86;100.00;94984.59;5089042;28;20110;-62
2023/01/19 07:23:14;;;;;;;21.23;17.48;;;;;;;-5.81;100.00;94984.41;5088981;28;20123;-63
2023/01/19 07:25:39;;;;;;;20.38;15.63;;;;;;;-5.82;100.00;94986.16;5087933;28;20061;-60
2023/01/19 07:28:04;;;;;;;19.45;16.10;;;;;;;-5.78;100.00;94985.13;5071155;28;20027;-59
2023/01/19 07:30:30;;;;;;;21.02;16.02;;;;;;;-5.78;100.00;94995.41;5085736;28;20024;-60
2023/01/19 07:32:56;;;;;;;17.85;14.75;;;;;;;-5.80;100.00;94986.94;5089820;28;20163;-59
2023/01/19 07:35:22;;;;;;;19.15;14.65;;;;;;;-5.88;100.00;94994.06;5083682;28;20023;-60
2023/01/19 07:37:47;;;;;;;14.77;12.07;;;;;;;-5.92;100.00;94995.09;5090420;28;20056;-60
2023/01/19 07:40:13;;;;;;;17.88;12.55;;;;;;;-5.93;100.00;94996.84;5096806;28;20149;-59
2023/01/19 07:42:38;;;;;;;11.40;10.20;;;;;;;-5.90;100.00;94991.59;5094834;28;20489;-61
2023/01/19 07:45:04;;;;;;;19.45;14.05;;;;;;;-5.86;100.00;94997.41;5092890;28;20071;-60
2023/01/19 07:47:29;;;;;;;16.40;14.23;;;;;;;-5.81;100.00;94989.53;5092608;28;20032;-60
2023/01/19 07:49:55;;;;;;;14.23;12.27;;;;;;;-5.76;100.00;94987.63;5091816;28;20032;-60
2023/01/19 07:52:21;;;;;;;14.10;12.55;;;;;;;-5.78;100.00;94990.28;5096812;28;20020;-60
2023/01/19 07:54:49;;;;;;;14.43;12.38;;;;;;;-5.86;100.00;94994.84;5090198;28;20081;-62
2023/01/19 07:57:15;;;;;;;12.27;11.00;;;;;;;-5.92;100.00;95000.22;5092352;28;20435;-60
2023/01/19 07:59:40;;;;;;;17.88;12.63;;;;;;;-5.89;100.00;94997.53;5092636;28;20059;-61
2023/01/19 08:02:08;;;;;;;15.05;12.13;;;;;;;-5.86;100.00;95002.53;5091347;28;20493;-61
2023/01/19 08:04:34;;;;;;;21.98;18.80;;;;;;;-5.52;100.00;95002.97;5085181;28;20093;-61
2023/01/19 08:06:59;;;;;;;22.45;18.15;;;;;;;-5.66;100.00;95000.94;5085507;28;20477;-61
2023/01/19 08:09:25;;;;;;;25.73;20.63;;;;;;;-5.75;100.00;95007.25;5092536;28;20483;-61
2023/01/19 08:11:50;;;;;;;21.17;17.90;;;;;;;-5.78;100.00;95007.38;5091994;28;20047;-61
2023/01/19 08:14:15;;;;;;;26.92;22.42;;;;;;;-5.85;100.00;95006.78;5093808;28;20047;-60
2023/01/19 08:16:41;;;;;;;29.75;26.50;;;;;;;-5.88;100.00;95013.75;5092337;28;20038;-60
2023/01/19 08:19:06;;;;;;;29.63;23.88;;;;;;;-5.79;100.00;95015.97;5091730;28;20070;-64
2023/01/19 08:21:32;;;;;;;27.25;24.23;;;;;;;-5.80;100.00;95022.84;5092483;28;20024;-61
2023/01/19 08:23:57;;;;;;;25.50;22.80;;;;;;;-5.69;100.00;95026.69;5092413;28;20024;-61
2023/01/19 08:26:28;;;;;;;27.27;24.48;;;;;;;-5.68;100.00;95041.19;5091916;28;20020;-60
2023/01/19 08:28:54;;;;;;;41.20;36.72;;;;;;;-5.65;100.00;95043.63;5091778;28;20565;-60
2023/01/19 08:31:20;;;;;;;51.70;39.75;;;;;;;-5.60;100.00;95044.31;5092226;28;20035;-60
2023/01/19 08:33:45;;;;;;;54.45;42.55;;;;;;;-5.69;100.00;95047.22;5092138;28;20043;-61
2023/01/19 08:36:10;;;;;;;59.47;47.90;;;;;;;-5.67;100.00;95050.56;5092062;28;20036;-61
2023/01/19 08:38:38;;;;;;;64.05;44.20;;;;;;;-5.69;100.00;95049.78;5092248;28;20035;-61
2023/01/19 08:41:04;;;;;;;62.00;45.50;;;;;;;-5.72;100.00;95045.63;5091688;28;20496;-60
2023/01/19 08:43:29;;;;;;;59.42;43.97;;;;;;;-5.73;100.00;95045.66;5092680;28;20084;-60
2023/01/19 08:45:55;;;;;;;59.97;44.80;;;;;;;-5.73;100.00;95053.34;5091447;28;20069;-60
2023/01/19 08:48:21;;;;;;;42.38;33.42;;;;;;;-5.78;100.00;95050.97;5090788;28;20016;-61
2023/01/19 08:50:48;;;;;;;37.83;30.75;;;;;;;-5.84;100.00;95054.63;5091322;28;20016;-61
2023/01/19 08:53:14;;;;;;;28.25;24.33;;;;;;;-5.82;100.00;95054.53;5091564;28;20040;-61
2023/01/19 08:55:40;;;;;;;14.88;13.27;;;;;;;-5.82;100.00;95059.69;5091553;28;20104;-60
2023/01/19 08:58:07;;;;;;;28.67;20.67;;;;;;;-5.76;100.00;95055.16;5091747;28;20078;-69
2023/01/19 09:00:36;;;;;;;20.58;18.38;;;;;;;-5.74;100.00;95060.22;5091840;28;20504;-68
2023/01/19 09:03:02;;;;;;;39.78;35.90;;;;;;;-5.80;100.00;95063.00;5089248;28;20100;-68
2023/01/19 09:05:34;;;;;;;24.35;21.98;;;;;;;-5.84;100.00;95070.00;5090127;28;20028;-68
2023/01/19 09:08:01;;;;;;;13.13;11.82;;;;;;;-5.87;100.00;95059.84;5091210;28;20036;-68
2023/01/19 09:10:30;;;;;;;12.35;11.13;;;;;;;-5.83;100.00;95058.84;5091945;28;20028;-68
2023/01/19 09:12:56;;;;;;;10.80;9.80;;;;;;;-5.80;100.00;95063.00;5091319;28;20066;-67
2023/01/19 09:15:21;;;;;;;10.27;9.38;;;;;;;-5.78;100.00;95071.47;5091285;28;20424;-67
2023/01/19 09:17:46;;;;;;;12.48;11.27;;;;;;;-5.73;100.00;95068.75;5091798;28;20043;-63
2023/01/19 09:20:12;;;;;;;12.32;11.23;;;;;;;-5.69;100.00;95054.91;5091844;28;20016;-66
2023/01/19 09:22:38;;;;;;;12.25;11.07;;;;;;;-5.69;100.00;95068.59;5090591;28;20018;-66
2023/01/19 09:25:04;;;;;;;11.82;10.63;;;;;;;-5.65;100.00;95067.56;5091345;28;20036;-66
2023/01/19 09:27:30;;;;;;;15.98;14.35;;;;;;;-5.42;100.00;95063.25;5090829;28;20493;-65
2023/01/19 09:29:55;;;;;;;15.32;13.70;;;;;;;-4.97;100.00;95068.34;5091525;28;20035;-65
2023/01/19 09:32:21;;;;;;;13.95;12.63;;;;;;;-4.58;100.00;95053.88;5091074;28;20015;-65
2023/01/19 09:34:47;;;;;;;15.98;14.00;;;;;;;-4.29;100.00;95062.09;5091499;28;20023;-65
2023/01/19 09:37:14;;;;;;;30.02;26.85;;;;;;;-3.96;100.00;95071.75;5090952;28;20027;-60
2023/01/19 09:39:39;;;;;;;12.30;10.90;;;;;;;-3.83;100.00;95064.31;5091081;28;20024;-63
2023/01/19 09:42:23;;;;;;;13.57;11.40;;;;;;;-3.71;100.00;95063.78;5090879;28;20073;-63
2023/01/19 09:44:51;;;;;;;9.98;9.00;;;;;;;-3.58;100.00;95066.63;5091207;28;20043;-63
2023/01/19 09:47:22;;;;;;;10.05;9.15;;;;;;;-3.51;100.00;95077.47;5090886;28;20054;-63
2023/01/19 09:50:02;;;;;;;13.90;12.55;;;;;;;-3.31;100.00;95068.78;5090661;28;20023;-63
2023/01/19 09:52:31;;;;;;;11.60;10.32;;;;;;;-3.08;100.00;95074.56;5091025;28;20046;-63
2023/01/19 09:54:57;;;;;;;11.45;10.25;;;;;;;-3.03;99.96;95075.19;5090212;28;20493;-64
2023/01/19 09:57:24;;;;;;;9.63;8.65;;;;;;;-2.81;99.45;95082.72;5090719;28;20044;-61
2023/01/19 09:59:50;;;;;;;11.40;8.35;;;;;;;-2.54;100.00;95068.50;5089954;28;20064;-68
2023/01/19 10:02:18;;;;;;;10.05;8.90;;;;;;;-2.38;99.02;95074.56;5090609;28;20494;-67
2023/01/19 10:05:00;;;;;;;13.73;9.50;;;;;;;-2.27;97.15;95075.78;5090146;28;20047;-68
2023/01/19 10:07:28;;;;;;;22.08;11.20;;;;;;;-2.32;95.03;95076.84;5090302;28;20440;-68
2023/01/19 10:10:12;;;;;;;10.90;7.40;;;;;;;-2.29;94.87;95075.84;5089504;28;20053;-68
2023/01/19 10:13:02;;;;;;;6.68;5.43;;;;;;;-2.24;96.42;95071.28;5090022;28;20077;-69
2023/01/19 10:15:43;;;;;;;7.32;5.50;;;;;;;-2.03;97.47;95079.66;5090581;28;20039;-65
2023/01/19 10:18:29;;;;;;;13.23;8.70;;;;;;;-1.93;97.29;95074.00;5090572;28;20032;-67
2023/01/19 10:21:15;;;;;;;7.00;6.40;;;;;;;-1.89;94.91;95072.91;5089851;28;20123;-67
2023/01/19 10:24:11;;;;;;;7.45;6.75;;;;;;;-1.86;94.97;95080.53;5090750;28;20053;-67
2023/01/19 10:26:41;;;;;;;9.93;8.98;;;;;;;-1.97;91.03;95072.50;5088960;28;20032;-67
2023/01/19 10:29:20;;;;;;;10.27;9.18;;;;;;;-1.96;92.14;95079.31;5069158;28;20442;-67
2023/01/19 10:31:48;;;;;;;22.05;19.50;;;;;;;-1.97;92.39;95075.94;5089060;28;20401;-66
2023/01/19 10:34:17;;;;;;;7.13;6.53;;;;;;;-1.85;93.80;95077.03;5089695;28;20027;-61
2023/01/19 10:36:44;;;;;;;7.40;6.70;;;;;;;-1.79;94.41;95068.94;5090087;28;20086;-63
2023/01/19 10:39:14;;;;;;;9.52;8.55;;;;;;;-1.67;93.87;95069.19;5090151;28;20417;-63
2023/01/19 10:41:41;;;;;;;7.57;6.88;;;;;;;-1.60;93.16;95066.19;5089971;28;20099;-64
2023/01/19 10:44:09;;;;;;;8.32;7.63;;;;;;;-1.61;91.76;95064.53;5089767;28;20024;-64
2023/01/19 10:46:46;;;;;;;9.85;7.82;;;;;;;-1.65;91.96;95065.63;5089425;28;20038;-64
2023/01/19 10:49:30;;;;;;;7.57;5.55;;;;;;;-1.57;92.25;95065.22;5089801;28;20028;-64
2023/01/19 10:51:57;;;;;;;5.65;5.05;;;;;;;-1.65;91.32;95067.38;5087399;28;20024;-64
2023/01/19 10:54:24;;;;;;;5.90;5.50;;;;;;;-1.68;93.83;95058.06;5104946;28;20028;-64
2023/01/19 10:56:56;;;;;;;8.13;5.95;;;;;;;-1.58;93.39;95058.38;5089609;28;20027;-65
2023/01/19 10:59:43;;;;;;;17.80;13.18;;;;;;;-1.80;90.31;95064.69;5089504;28;20107;-65
2023/01/19 11:02:11;;;;;;;10.90;9.80;;;;;;;-1.78;90.57;95051.69;5079811;28;20452;-65
2023/01/19 11:04:36;;;;;;;27.70;17.48;;;;;;;-1.68;91.34;95055.47;5089504;28;20674;-65
2023/01/19 11:07:26;;;;;;;6.65;5.38;;;;;;;-1.40;91.52;95047.97;5089549;28;20063;-65
2023/01/19 11:10:16;;;;;;;8.93;7.50;;;;;;;-1.32;90.92;95051.78;5088655;28;20490;-64
2023/01/19 11:12:45;;;;;;;40.75;22.33;;;;;;;-1.37;91.14;95040.03;5089492;28;20016;-67
2023/01/19 11:15:19;;;;;;;21.45;13.70;;;;;;;-1.41;90.56;95046.31;5089428;28;20024;-65
2023/01/19 11:17:47;;;;;;;7.72;7.00;;;;;;;-1.32;90.59;95041.47;5089624;28;20068;-60
2023/01/19 11:20:28;;;;;;;23.58;15.55;;;;;;;-1.23;90.61;95042.69;5090267;28;20020;-60
2023/01/19 11:23:04;;;;;;;10.23;8.57;;;;;;;-1.22;88.96;95036.59;5089173;28;20095;-60
2023/01/19 11:25:31;;;;;;;42.28;22.40;;;;;;;-1.11;89.63;95033.41;5089141;28;20020;-60
2023/01/19 11:27:57;;;;;;;11.70;8.02;;;;;;;-1.04;89.61;95028.72;5089166;28;20047;-60
2023/01/19 11:30:24;;;;;;;44.25;29.80;;;;;;;-1.15;86.51;95029.34;5089383;28;20513;-60
2023/01/19 11:32:50;;;;;;;9.60;8.60;;;;;;;-1.18;87.85;95034.69;5088860;28;20059;-74
2023/01/19 11:35:28;;;;;;;6.72;6.13;;;;;;;-1.17;87.05;95029.44;5089648;28;20493;-61